Stony Rapids Airport
CYSF : now visible

Airfield :











YOU CAN JOIN US ON...

 
LOGIN :

Register | Disclaimer

   EN    FR    IT 

 









Legend :    VFR   Marginal VFR   IFR   Intensive IFR   Very Intensive IFR
Visi :
Ceiling :
>= 8 km
>= 3000ft
5 to 8 km
1000 to 3000 ft
1500m to 5 km
500 to 1000 ft
800 to 1500m
200 to 500 ft
< 800m
< 200 ft
Symbols :   Thunderstorms  Fog  Heavy snow  Heavy precipitations  Wind > 20 kt






- Airport Elevation : 805 ft
- IATA code : YSF


CYSF - Stony Rapids

CURRENT METAR :
  • 300800Z AUTO VRB02KT 9SM FEW001 M22/M24 A2963 RMK SLP060

EXPIRED METARs :
  • 300700Z AUTO 00000KT 9SM CLR M21/M23 A2964 RMK SLP065
  • 300636Z AUTO 00000KT 9SM FEW001 M20/M22 A2963 RMK SLP063
  • 300624Z AUTO 00000KT 1/2SM FZFG SCT001 M20/M22 A2963 RMK VIS VRB 1/4-3 SLP063
  • 300600Z AUTO VRB02KT 9SM CLR M20/M22 A2963 RMK SLP063

TAF AMD TAF CYSF
Valid from the 30 at 06:00 until the 30 at 18:00 UTC


300625Z 3006/3018 VRB03KT P6SM SKC
TEMPO 3006/3016 1/2SM FZFG SCT001
FM301600 09006KT P6SM SCT240 RMK FCST BASED ON AUTO OBS. NXT FCST BY 301200Z
CZEG FIR / North America



MET'MAP, your aeronautical weather chart ! - Copyright ORBIFLY December 2007 - Disclaimer

ORBIFLY MET'MAP TEAM :

Programming & Development : Alexandra Zaïnal
Concept & original design : Baudouin d'Aumeries
Assistance for programming : Marc-Olivier Méhu
Technical & hardware support : Manuel Goepfert

Contact : metmap@orbifly.com




SOURCES & CREDITS :

   NOAA       Earth
Advisory